createdAt,value
2018-12-18T00:04:23.710Z,28.47
2018-12-18T00:09:26.827Z,29.40
2018-12-18T00:14:29.991Z,31.30
2018-12-18T00:19:33.127Z,29.27
2018-12-18T00:24:36.230Z,29.47
2018-12-18T00:29:39.385Z,28.00
2018-12-18T00:34:42.490Z,29.43
2018-12-18T00:39:45.595Z,28.00
2018-12-18T00:44:48.768Z,27.83
2018-12-18T00:49:51.913Z,26.20
2018-12-18T00:54:54.976Z,27.47
2018-12-18T00:59:58.142Z,26.13
2018-12-18T01:05:01.254Z,25.40
2018-12-18T01:10:05.524Z,25.43
2018-12-18T01:15:08.708Z,27.10
2018-12-18T01:20:11.840Z,24.03
2018-12-18T01:25:14.955Z,25.20
2018-12-18T01:30:18.116Z,25.20
2018-12-18T01:35:21.251Z,24.40
2018-12-18T01:40:24.386Z,24.07
2018-12-18T01:45:27.599Z,25.63
2018-12-18T01:50:30.701Z,24.27
2018-12-18T01:55:33.810Z,23.60
2018-12-18T02:00:36.941Z,25.43
2018-12-18T02:05:40.025Z,26.27
2018-12-18T02:10:43.144Z,27.87
2018-12-18T02:15:46.216Z,25.27
2018-12-18T02:20:49.367Z,24.87
2018-12-18T02:25:52.483Z,24.73
2018-12-18T02:30:55.539Z,26.00
2018-12-18T02:35:58.675Z,25.83
2018-12-18T02:41:01.789Z,24.87
2018-12-18T02:46:04.944Z,24.63
2018-12-18T02:51:08.146Z,23.63
2018-12-18T02:56:11.310Z,22.97
2018-12-18T03:01:14.408Z,24.60
2018-12-18T03:06:17.573Z,24.17
2018-12-18T03:11:21.036Z,26.27
2018-12-18T03:16:24.183Z,25.20
2018-12-18T03:21:27.295Z,25.53
2018-12-18T03:26:30.446Z,24.47
2018-12-18T03:31:35.120Z,23.30
2018-12-18T03:36:38.177Z,22.80
2018-12-18T03:41:41.278Z,22.77
2018-12-18T03:46:44.423Z,22.87
2018-12-18T03:51:47.535Z,23.47
2018-12-18T03:56:50.680Z,23.07
2018-12-18T04:01:53.750Z,23.83
2018-12-18T04:06:56.931Z,23.00
2018-12-18T04:12:05.579Z,22.43
2018-12-18T04:17:08.717Z,21.97
2018-12-18T04:22:11.795Z,23.80
2018-12-18T04:27:14.949Z,22.43
2018-12-18T04:32:18.209Z,24.67
2018-12-18T04:37:21.322Z,23.50
2018-12-18T04:42:24.384Z,23.63
2018-12-18T04:47:27.459Z,26.13
2018-12-18T04:52:30.518Z,24.87
2018-12-18T04:57:33.631Z,25.67
2018-12-18T05:02:36.740Z,25.03
2018-12-18T05:07:39.850Z,23.60
2018-12-18T05:12:43.003Z,22.60
2018-12-18T05:17:46.143Z,22.97
2018-12-18T05:22:49.362Z,23.07
2018-12-18T05:27:52.443Z,23.13
2018-12-18T05:32:55.560Z,23.40
2018-12-18T05:37:58.704Z,24.03
2018-12-18T05:43:01.808Z,23.77
2018-12-18T05:48:04.952Z,24.57
2018-12-18T05:53:08.076Z,24.90
2018-12-18T05:58:11.206Z,23.97
2018-12-18T06:03:14.382Z,24.33
2018-12-18T06:08:17.508Z,24.30
2018-12-18T06:13:20.625Z,22.60
2018-12-18T06:18:23.807Z,24.70
2018-12-18T06:23:26.972Z,25.53
2018-12-18T06:28:30.164Z,26.43
2018-12-18T06:33:33.301Z,26.93
2018-12-18T06:38:36.454Z,26.47
2018-12-18T06:43:39.640Z,26.00
2018-12-18T06:48:42.814Z,23.60
2018-12-18T06:53:45.962Z,23.97
2018-12-18T06:58:49.104Z,25.80
2018-12-18T07:03:52.179Z,21.83
2018-12-18T07:08:55.318Z,23.30
2018-12-18T07:13:58.455Z,23.17
2018-12-18T07:19:01.698Z,22.23
2018-12-18T07:24:04.861Z,22.37
2018-12-18T07:29:08.037Z,21.50
2018-12-18T07:34:11.140Z,21.23
2018-12-18T07:39:14.197Z,20.73
2018-12-18T07:44:17.258Z,22.67
2018-12-18T07:49:20.392Z,22.53
2018-12-18T07:54:23.594Z,22.60
2018-12-18T07:59:26.695Z,24.07
2018-12-18T08:04:29.943Z,22.37
2018-12-18T08:09:34.159Z,22.70
2018-12-18T08:14:37.475Z,20.80
2018-12-18T08:19:41.690Z,22.13
2018-12-18T08:24:44.776Z,20.90
2018-12-18T08:29:47.922Z,20.40
2018-12-18T08:34:51.219Z,18.10
2018-12-18T08:39:54.402Z,19.33
2018-12-18T08:44:57.608Z,20.73
2018-12-18T08:50:00.905Z,21.33
2018-12-18T08:55:04.269Z,21.73
2018-12-18T09:00:10.230Z,18.77
2018-12-18T09:05:13.523Z,18.17
2018-12-18T09:10:16.703Z,18.20
2018-12-18T09:15:25.510Z,18.60
2018-12-18T09:20:28.785Z,18.07
2018-12-18T09:25:32.022Z,18.27
2018-12-18T09:30:39.602Z,16.83
2018-12-18T09:35:41.097Z,16.13
2018-12-18T09:40:49.860Z,15.97
2018-12-18T09:45:53.245Z,17.80
2018-12-18T09:50:56.453Z,16.10
2018-12-18T09:55:59.652Z,17.43
2018-12-18T10:01:02.814Z,17.40
2018-12-18T10:06:06.355Z,17.47
2018-12-18T10:11:09.627Z,16.80
2018-12-18T10:16:12.813Z,17.37
2018-12-18T10:21:16.161Z,19.27
2018-12-18T10:26:19.273Z,21.90
2018-12-18T10:31:22.472Z,22.07
2018-12-18T10:36:26.688Z,22.40
2018-12-18T10:41:30.469Z,21.80
2018-12-18T10:46:33.825Z,21.50
2018-12-18T10:51:37.106Z,21.23
2018-12-18T10:56:40.562Z,22.50
2018-12-18T11:01:47.517Z,22.67
2018-12-18T11:06:50.843Z,20.67
2018-12-18T11:11:54.382Z,21.93
2018-12-18T11:16:57.920Z,21.77
2018-12-18T11:22:01.150Z,22.07
2018-12-18T11:27:05.343Z,21.77
2018-12-18T11:32:09.512Z,20.83
2018-12-18T11:37:12.990Z,22.40
2018-12-18T11:42:16.321Z,21.17
2018-12-18T11:47:19.885Z,21.07
2018-12-18T11:52:23.089Z,19.13
2018-12-18T11:57:26.381Z,19.17
2018-12-18T12:02:29.660Z,20.47
2018-12-18T12:07:32.827Z,21.03
2018-12-18T12:12:36.069Z,18.80
2018-12-18T12:17:39.595Z,18.57
2018-12-18T12:22:42.888Z,19.67
2018-12-18T12:27:51.348Z,18.93
2018-12-18T12:32:54.504Z,17.93
2018-12-18T12:37:57.744Z,19.03
2018-12-18T12:43:01.104Z,18.73
2018-12-18T12:48:09.693Z,17.90
2018-12-18T12:53:13.088Z,17.67
2018-12-18T12:58:16.268Z,16.60
2018-12-18T13:03:19.355Z,14.13
2018-12-18T13:08:22.484Z,13.47
2018-12-18T13:13:25.793Z,14.40
2018-12-18T13:18:28.939Z,16.70
2018-12-18T13:23:32.160Z,14.33
2018-12-18T13:28:35.560Z,15.57
2018-12-18T13:33:38.711Z,15.73
2018-12-18T13:38:42.064Z,16.43
2018-12-18T13:43:45.180Z,17.27
2018-12-18T13:48:48.318Z,16.73
2018-12-18T13:53:51.504Z,16.37
2018-12-18T13:58:54.649Z,16.83
2018-12-18T14:03:57.871Z,18.33
2018-12-18T14:09:01.087Z,21.43
2018-12-18T14:14:04.323Z,23.10
2018-12-18T14:19:07.416Z,22.37
2018-12-18T14:24:10.540Z,20.03
2018-12-18T14:34:36.689Z,21.27
2018-12-18T14:39:39.749Z,23.63
2018-12-18T14:44:42.928Z,22.30
2018-12-18T14:49:46.200Z,21.37
2018-12-18T14:54:49.290Z,24.07
2018-12-18T14:59:52.506Z,28.60
2018-12-18T15:04:55.739Z,26.60
2018-12-18T15:09:58.805Z,28.73
2018-12-18T15:15:01.973Z,27.37
2018-12-18T15:20:07.068Z,27.97
2018-12-18T15:25:10.229Z,27.17
2018-12-18T15:30:13.436Z,26.57
2018-12-18T15:35:16.648Z,25.67
2018-12-18T15:40:19.864Z,23.70
2018-12-18T15:45:23.107Z,23.57
2018-12-18T15:50:26.252Z,19.40
2018-12-18T15:55:29.407Z,21.37
2018-12-18T16:00:32.484Z,20.27
2018-12-18T16:05:35.643Z,21.57
2018-12-18T16:10:38.695Z,22.77
2018-12-18T16:15:41.808Z,22.80
2018-12-18T16:20:44.928Z,24.67
2018-12-18T16:25:48.060Z,24.17
2018-12-18T16:30:51.192Z,25.70
2018-12-18T16:35:54.396Z,25.77
2018-12-18T16:40:57.548Z,26.77
2018-12-18T16:46:00.639Z,25.57
2018-12-18T16:51:03.758Z,27.37
2018-12-18T16:56:06.963Z,27.37
2018-12-18T17:01:10.159Z,27.93
2018-12-18T17:06:13.334Z,28.87
2018-12-18T17:11:16.442Z,28.93
2018-12-18T17:16:19.514Z,27.27
2018-12-18T17:21:22.613Z,28.83
2018-12-18T17:26:25.719Z,29.17
2018-12-18T17:31:28.823Z,29.10
2018-12-18T17:36:31.928Z,28.30
2018-12-18T17:41:35.082Z,26.37
2018-12-18T17:46:38.211Z,29.57
2018-12-18T17:51:41.384Z,28.67
2018-12-18T17:56:44.596Z,28.03
2018-12-18T18:01:47.713Z,27.10
2018-12-18T18:06:50.850Z,25.60
2018-12-18T18:11:53.985Z,23.03
2018-12-18T18:16:57.153Z,25.10
2018-12-18T18:22:00.327Z,25.27
2018-12-18T18:27:03.527Z,24.87
2018-12-18T18:32:06.663Z,23.03
2018-12-18T18:37:09.795Z,22.23
2018-12-18T18:42:13.141Z,22.87
2018-12-18T18:47:16.275Z,21.77
2018-12-18T18:52:19.422Z,22.03
2018-12-18T18:57:22.588Z,23.00
2018-12-18T19:02:25.726Z,21.47
2018-12-18T19:07:28.959Z,23.07
2018-12-18T19:12:32.279Z,20.83
2018-12-18T19:17:35.530Z,24.57
2018-12-18T19:22:38.736Z,22.20
2018-12-18T19:27:41.879Z,21.50
2018-12-18T19:32:45.163Z,22.87
2018-12-18T19:37:48.319Z,21.67
2018-12-18T19:42:51.446Z,21.43
2018-12-18T19:47:54.593Z,19.80
2018-12-18T19:52:57.755Z,20.63
2018-12-18T19:58:00.868Z,20.00
2018-12-18T20:03:04.660Z,20.03
2018-12-18T20:08:10.177Z,20.33
2018-12-18T20:13:13.016Z,20.30
2018-12-18T20:18:16.138Z,19.77
2018-12-18T20:23:19.170Z,18.67
2018-12-18T20:28:22.244Z,19.30
2018-12-18T20:33:25.420Z,20.57
2018-12-18T20:38:28.694Z,18.83
2018-12-18T20:43:31.845Z,18.63
2018-12-18T20:48:35.004Z,20.33
2018-12-18T20:53:38.172Z,18.57
2018-12-18T20:58:41.351Z,17.73
2018-12-18T21:03:44.534Z,18.67
2018-12-18T21:08:47.841Z,19.60
2018-12-18T21:13:51.118Z,21.63
2018-12-18T21:18:54.482Z,19.90
2018-12-18T21:23:57.802Z,17.13
2018-12-18T21:29:01.123Z,16.70
2018-12-18T21:34:04.507Z,16.10
2018-12-18T21:39:08.990Z,16.97
2018-12-18T21:44:12.302Z,16.57
2018-12-18T21:49:15.567Z,15.67
2018-12-18T21:54:18.935Z,15.67
2018-12-18T21:59:22.303Z,17.60
2018-12-18T22:04:25.593Z,17.90
2018-12-18T22:09:28.983Z,17.27
2018-12-18T22:14:32.289Z,17.67
2018-12-18T22:19:40.202Z,17.70
2018-12-18T22:24:43.531Z,20.00
2018-12-18T22:29:46.733Z,18.03
2018-12-18T22:34:50.008Z,18.60
2018-12-18T22:39:53.216Z,16.83
2018-12-18T22:44:56.331Z,17.30
2018-12-18T22:49:59.416Z,18.13
2018-12-18T22:55:02.605Z,18.20
2018-12-18T23:00:08.639Z,16.70
2018-12-18T23:05:11.802Z,17.57
2018-12-18T23:10:15.045Z,16.70
2018-12-18T23:15:18.280Z,14.87
2018-12-18T23:20:21.386Z,17.07
2018-12-18T23:25:24.593Z,17.07
2018-12-18T23:30:27.796Z,17.10
2018-12-18T23:35:30.887Z,17.33
2018-12-18T23:40:34.052Z,18.03
2018-12-18T23:45:37.199Z,16.43
2018-12-18T23:50:40.300Z,17.73
2018-12-18T23:55:43.432Z,17.93
